createdAt,value
2022-11-29T00:00:34.529Z,18.33
2022-11-29T00:01:34.532Z,18.43
2022-11-29T00:02:34.663Z,18.43
2022-11-29T00:03:34.533Z,18.24
2022-11-29T00:04:34.527Z,18.15
2022-11-29T00:05:34.531Z,18.43
2022-11-29T00:06:34.523Z,18.43
2022-11-29T00:07:34.583Z,18.43
2022-11-29T00:08:34.521Z,18.33
2022-11-29T00:09:34.531Z,18.43
2022-11-29T00:10:34.522Z,18.43
2022-11-29T00:11:34.529Z,18.43
2022-11-29T00:12:34.523Z,18.43
2022-11-29T00:13:34.527Z,18.63
2022-11-29T00:14:34.525Z,18.53
2022-11-29T00:15:34.528Z,18.63
2022-11-29T00:16:34.577Z,18.53
2022-11-29T00:17:34.527Z,18.43
2022-11-29T00:18:34.547Z,18.53
2022-11-29T00:19:34.526Z,18.43
2022-11-29T00:20:34.519Z,18.63
2022-11-29T00:21:34.526Z,18.53
2022-11-29T00:22:34.520Z,18.53
2022-11-29T00:23:34.525Z,18.43
2022-11-29T00:24:34.521Z,18.43
2022-11-29T00:25:34.526Z,18.53
2022-11-29T00:26:34.521Z,18.43
2022-11-29T00:27:34.524Z,18.43
2022-11-29T00:28:34.516Z,18.63
2022-11-29T00:29:34.526Z,18.43
2022-11-29T00:30:34.559Z,18.43
2022-11-29T00:31:34.516Z,18.53
2022-11-29T00:32:34.523Z,18.43
2022-11-29T00:33:34.515Z,18.53
2022-11-29T00:34:34.548Z,18.53
2022-11-29T00:35:34.514Z,18.43
2022-11-29T00:36:34.522Z,18.53
2022-11-29T00:37:34.514Z,18.53
2022-11-29T00:38:34.522Z,18.63
2022-11-29T00:39:34.513Z,18.43
2022-11-29T00:40:34.521Z,18.43
2022-11-29T00:41:34.515Z,18.53
2022-11-29T00:42:34.521Z,18.53
2022-11-29T00:43:34.513Z,18.43
2022-11-29T00:44:34.521Z,18.43
2022-11-29T00:45:34.549Z,18.43
2022-11-29T00:46:34.519Z,18.73
2022-11-29T00:47:34.511Z,18.73
2022-11-29T00:48:34.520Z,18.43
2022-11-29T00:49:34.512Z,18.43
2022-11-29T00:50:34.547Z,18.53
2022-11-29T00:51:34.512Z,18.53
2022-11-29T00:52:34.520Z,18.53
2022-11-29T00:53:34.512Z,18.73
2022-11-29T00:54:34.517Z,18.92
2022-11-29T00:55:34.511Z,18.92
2022-11-29T00:56:34.517Z,18.92
2022-11-29T00:57:34.511Z,18.92
2022-11-29T00:58:34.518Z,18.92
2022-11-29T00:59:34.509Z,18.82
2022-11-29T01:00:34.517Z,18.82
2022-11-29T01:01:34.550Z,18.92
2022-11-29T01:02:34.564Z,18.92
2022-11-29T01:03:34.511Z,18.82
2022-11-29T01:04:34.515Z,18.73
2022-11-29T01:05:34.508Z,18.82
2022-11-29T01:06:34.541Z,18.73
2022-11-29T01:07:34.551Z,18.82
2022-11-29T01:08:34.514Z,18.73
2022-11-29T01:09:34.507Z,18.82
2022-11-29T01:10:34.515Z,18.73
2022-11-29T01:11:34.507Z,18.73
2022-11-29T01:12:34.515Z,18.82
2022-11-29T01:13:34.506Z,18.73
2022-11-29T01:14:34.514Z,18.82
2022-11-29T01:15:34.505Z,18.73
2022-11-29T01:16:34.630Z,18.73
2022-11-29T01:17:34.504Z,18.73
2022-11-29T01:18:34.511Z,18.73
2022-11-29T01:19:34.505Z,18.73
2022-11-29T01:20:34.511Z,18.82
2022-11-29T01:21:34.507Z,18.82
2022-11-29T01:22:34.537Z,18.82
2022-11-29T01:23:34.505Z,18.82
2022-11-29T01:24:34.511Z,18.73
2022-11-29T01:25:34.504Z,18.73
2022-11-29T01:26:34.511Z,18.73
2022-11-29T01:27:34.502Z,18.73
2022-11-29T01:28:34.509Z,18.73
2022-11-29T01:29:34.502Z,18.73
2022-11-29T01:30:34.548Z,18.73
2022-11-29T01:31:34.501Z,18.73
2022-11-29T01:32:34.509Z,18.73
2022-11-29T01:33:34.500Z,18.73
2022-11-29T01:34:34.510Z,18.73
2022-11-29T01:35:34.501Z,18.82
2022-11-29T01:36:34.512Z,18.82
2022-11-29T01:37:34.506Z,18.63
2022-11-29T01:38:34.535Z,18.63
2022-11-29T01:39:34.498Z,19.02
2022-11-29T01:40:34.509Z,18.92
2022-11-29T01:41:34.504Z,18.73
2022-11-29T01:42:34.507Z,18.92
2022-11-29T01:43:34.498Z,18.73
2022-11-29T01:44:34.504Z,18.82
2022-11-29T01:45:34.499Z,18.82
2022-11-29T01:46:34.506Z,18.73
2022-11-29T01:47:34.496Z,18.82
2022-11-29T01:48:34.507Z,18.82
2022-11-29T01:49:34.496Z,18.82
2022-11-29T01:50:34.507Z,18.92
2022-11-29T01:51:34.495Z,18.92
2022-11-29T01:52:34.503Z,18.92
2022-11-29T01:53:34.497Z,18.92
2022-11-29T01:54:34.533Z,18.92
2022-11-29T01:55:34.514Z,18.82
2022-11-29T01:56:34.507Z,18.92
2022-11-29T01:57:34.494Z,18.92
2022-11-29T01:58:34.502Z,18.92
2022-11-29T01:59:34.493Z,18.92
2022-11-29T02:00:34.500Z,18.92
2022-11-29T02:01:34.562Z,19.02
2022-11-29T02:02:34.589Z,18.92
2022-11-29T02:03:34.493Z,18.82
2022-11-29T02:04:34.500Z,18.92
2022-11-29T02:05:34.495Z,18.82
2022-11-29T02:06:34.505Z,18.92
2022-11-29T02:07:34.528Z,18.92
2022-11-29T02:08:34.499Z,18.73
2022-11-29T02:09:34.501Z,18.92
2022-11-29T02:10:34.524Z,18.73
2022-11-29T02:11:34.498Z,18.92
2022-11-29T02:12:34.499Z,18.82
2022-11-29T02:13:34.492Z,18.82
2022-11-29T02:14:34.499Z,19.02
2022-11-29T02:15:34.627Z,18.82
2022-11-29T02:16:34.499Z,18.82
2022-11-29T02:17:34.490Z,18.92
2022-11-29T02:18:34.497Z,18.82
2022-11-29T02:19:34.490Z,18.73
2022-11-29T02:20:34.497Z,18.82
2022-11-29T02:21:34.491Z,18.82
2022-11-29T02:22:34.497Z,18.82
2022-11-29T02:23:34.490Z,18.92
2022-11-29T02:24:34.496Z,18.82
2022-11-29T02:25:34.488Z,18.82
2022-11-29T02:26:34.517Z,18.82
2022-11-29T02:27:34.489Z,18.92
2022-11-29T02:28:34.496Z,18.73
2022-11-29T02:29:34.487Z,18.92
2022-11-29T02:30:34.564Z,19.02
2022-11-29T02:31:34.486Z,19.02
2022-11-29T02:32:34.496Z,19.02
2022-11-29T02:33:34.486Z,19.02
2022-11-29T02:34:34.493Z,19.02
2022-11-29T02:35:34.488Z,19.02
2022-11-29T02:36:34.492Z,19.02
2022-11-29T02:37:34.486Z,18.92
2022-11-29T02:38:34.499Z,19.02
2022-11-29T02:39:34.486Z,19.02
2022-11-29T02:40:34.494Z,18.82
2022-11-29T02:41:34.484Z,19.02
2022-11-29T02:42:34.516Z,18.92
2022-11-29T02:43:34.490Z,18.92
2022-11-29T02:44:34.492Z,19.02
2022-11-29T02:45:34.484Z,18.92
2022-11-29T02:46:34.545Z,19.02
2022-11-29T02:47:34.482Z,18.82
2022-11-29T02:48:34.490Z,19.02
2022-11-29T02:49:34.485Z,19.02
2022-11-29T02:50:34.495Z,18.92
2022-11-29T02:51:34.482Z,18.92
2022-11-29T02:52:34.488Z,18.92
2022-11-29T02:53:34.484Z,19.02
2022-11-29T02:54:34.488Z,18.92
2022-11-29T02:55:34.481Z,18.92
2022-11-29T02:56:34.486Z,18.92
2022-11-29T02:57:34.480Z,18.92
2022-11-29T02:58:34.515Z,18.92
2022-11-29T02:59:34.479Z,18.92
2022-11-29T03:00:34.486Z,18.92
2022-11-29T03:01:34.524Z,19.02
2022-11-29T03:02:34.562Z,18.92
2022-11-29T03:03:34.477Z,18.92
2022-11-29T03:04:34.485Z,18.92
2022-11-29T03:05:34.478Z,18.92
2022-11-29T03:06:34.485Z,18.92
2022-11-29T03:07:34.552Z,18.92
2022-11-29T03:08:34.484Z,18.82
2022-11-29T03:09:34.476Z,18.92
2022-11-29T03:10:34.484Z,18.92
2022-11-29T03:11:34.475Z,19.02
2022-11-29T03:12:34.483Z,19.02
2022-11-29T03:13:34.479Z,18.92
2022-11-29T03:14:34.504Z,18.92
2022-11-29T03:15:34.567Z,18.92
2022-11-29T03:16:38.336Z,18.92
2022-11-29T03:17:34.474Z,19.02
2022-11-29T03:18:34.481Z,18.92
2022-11-29T03:19:34.487Z,18.82
2022-11-29T03:20:34.481Z,18.92
2022-11-29T03:21:34.476Z,18.92
2022-11-29T03:22:34.480Z,18.82
2022-11-29T03:23:34.476Z,18.82
2022-11-29T03:24:34.479Z,18.82
2022-11-29T03:25:34.476Z,18.92
2022-11-29T03:26:34.481Z,18.82
2022-11-29T03:27:34.471Z,18.92
2022-11-29T03:28:34.479Z,19.02
2022-11-29T03:29:34.472Z,18.82
2022-11-29T03:30:34.528Z,18.82
2022-11-29T03:31:34.474Z,19.02
2022-11-29T03:32:34.478Z,18.82
2022-11-29T03:33:34.470Z,18.82
2022-11-29T03:34:34.479Z,18.82
2022-11-29T03:35:34.470Z,18.92
2022-11-29T03:36:34.480Z,18.92
2022-11-29T03:37:34.469Z,18.82
2022-11-29T03:38:34.477Z,18.92
2022-11-29T03:39:34.468Z,18.92
2022-11-29T03:40:34.476Z,19.21
2022-11-29T03:41:34.469Z,19.02
2022-11-29T03:42:34.475Z,18.92
2022-11-29T03:43:34.468Z,18.92
2022-11-29T03:44:34.483Z,18.92
2022-11-29T03:45:34.467Z,18.92
2022-11-29T03:46:34.538Z,18.82
2022-11-29T03:47:34.470Z,19.21
2022-11-29T03:48:34.474Z,18.82
2022-11-29T03:49:34.467Z,18.92
2022-11-29T03:50:34.474Z,19.02
2022-11-29T03:51:34.466Z,18.92
2022-11-29T03:52:34.476Z,19.02
2022-11-29T03:53:34.467Z,19.02
2022-11-29T03:54:34.472Z,18.92
2022-11-29T03:55:34.464Z,18.92
2022-11-29T03:56:34.472Z,18.82
2022-11-29T03:57:34.465Z,18.92
2022-11-29T03:58:34.471Z,18.82
2022-11-29T03:59:34.462Z,19.02
2022-11-29T04:00:34.472Z,19.02
2022-11-29T04:01:34.481Z,19.02
2022-11-29T04:02:34.563Z,18.92
2022-11-29T04:03:34.461Z,18.92
2022-11-29T04:04:34.469Z,19.11
2022-11-29T04:05:34.464Z,18.82
2022-11-29T04:06:34.469Z,18.92
2022-11-29T04:07:34.534Z,18.92
2022-11-29T04:08:34.469Z,19.02
2022-11-29T04:09:34.464Z,18.82
2022-11-29T04:10:34.468Z,19.02
2022-11-29T04:11:34.459Z,18.92
2022-11-29T04:12:34.467Z,18.92
2022-11-29T04:13:34.460Z,19.11
2022-11-29T04:14:34.467Z,19.02
2022-11-29T04:15:34.522Z,18.92
2022-11-29T04:16:34.466Z,18.92
2022-11-29T04:17:34.458Z,19.11
2022-11-29T04:18:34.487Z,19.11
2022-11-29T04:19:34.456Z,18.92
2022-11-29T04:20:39.142Z,19.11
2022-11-29T04:21:34.457Z,19.11
2022-11-29T04:22:34.464Z,19.02
2022-11-29T04:23:34.456Z,19.21
2022-11-29T04:24:34.463Z,19.11
2022-11-29T04:25:34.456Z,18.73
2022-11-29T04:26:35.247Z,19.02
2022-11-29T04:27:34.457Z,18.82
2022-11-29T04:28:34.463Z,18.82
2022-11-29T04:29:34.457Z,19.02
2022-11-29T04:30:34.464Z,19.02
2022-11-29T04:31:34.511Z,19.21
2022-11-29T04:32:34.462Z,18.82
2022-11-29T04:33:34.456Z,18.73
2022-11-29T04:34:34.487Z,19.21
2022-11-29T04:35:34.456Z,19.11
2022-11-29T04:36:34.460Z,19.21
2022-11-29T04:37:34.455Z,18.92
2022-11-29T04:38:34.461Z,19.31
2022-11-29T04:39:34.453Z,18.73
2022-11-29T04:40:34.460Z,19.11
2022-11-29T04:41:34.453Z,19.11
2022-11-29T04:42:34.459Z,19.02
2022-11-29T04:43:34.451Z,19.21
2022-11-29T04:44:34.459Z,18.92
2022-11-29T04:45:34.453Z,19.21
2022-11-29T04:46:34.508Z,19.21
2022-11-29T04:47:34.457Z,19.21
2022-11-29T04:48:34.451Z,19.31
2022-11-29T04:49:34.458Z,19.31
2022-11-29T04:50:34.477Z,19.11
2022-11-29T04:51:34.456Z,19.21
2022-11-29T04:52:34.450Z,19.21
2022-11-29T04:53:34.456Z,19.11
2022-11-29T04:54:34.452Z,19.21
2022-11-29T04:55:34.455Z,19.21
2022-11-29T04:56:34.448Z,19.21
2022-11-29T04:57:34.455Z,19.11
2022-11-29T04:58:34.447Z,19.21
2022-11-29T04:59:34.454Z,19.31
2022-11-29T05:00:34.448Z,19.31
2022-11-29T05:01:34.479Z,19.21
2022-11-29T05:02:34.484Z,19.31
2022-11-29T05:03:34.452Z,19.31
2022-11-29T05:04:34.446Z,19.21
2022-11-29T05:05:34.452Z,19.21
2022-11-29T05:06:34.469Z,19.21
2022-11-29T05:07:34.467Z,19.02
2022-11-29T05:08:34.443Z,19.21
2022-11-29T05:09:34.452Z,19.21
2022-11-29T05:10:34.445Z,19.21
2022-11-29T05:11:34.452Z,19.21
2022-11-29T05:12:34.442Z,19.02
2022-11-29T05:13:34.450Z,19.21
2022-11-29T05:14:34.444Z,19.11
2022-11-29T05:15:34.449Z,19.11
2022-11-29T05:16:34.443Z,19.21
2022-11-29T05:17:34.450Z,19.11
2022-11-29T05:18:34.442Z,19.11
2022-11-29T05:19:34.447Z,19.11
2022-11-29T05:20:34.441Z,19.11
2022-11-29T05:21:34.449Z,19.11
2022-11-29T05:22:34.466Z,19.21
2022-11-29T05:23:34.447Z,19.11
2022-11-29T05:24:34.439Z,19.21
2022-11-29T05:25:34.447Z,19.11
2022-11-29T05:26:34.439Z,19.11
2022-11-29T05:27:34.452Z,19.11
2022-11-29T05:28:34.438Z,19.11
2022-11-29T05:29:34.445Z,19.11
2022-11-29T05:30:34.439Z,19.11
2022-11-29T05:31:34.481Z,19.11
2022-11-29T05:32:34.438Z,19.11
2022-11-29T05:33:34.445Z,19.11
2022-11-29T05:34:45.265Z,19.11
2022-11-29T05:35:34.444Z,19.31
2022-11-29T05:36:34.436Z,19.31
2022-11-29T05:37:34.444Z,19.21
2022-11-29T05:38:34.459Z,19.11
2022-11-29T05:39:34.446Z,19.11
2022-11-29T05:40:34.437Z,19.11
2022-11-29T05:41:34.442Z,19.31
2022-11-29T05:42:34.436Z,19.11
2022-11-29T05:43:34.441Z,19.21
2022-11-29T05:44:34.433Z,19.11
2022-11-29T05:45:34.441Z,19.11
2022-11-29T05:46:34.484Z,19.21
2022-11-29T05:47:34.444Z,19.11
2022-11-29T05:48:34.434Z,19.11
2022-11-29T05:49:34.442Z,19.21
2022-11-29T05:50:34.432Z,19.31
2022-11-29T05:51:34.440Z,19.11
2022-11-29T05:52:34.433Z,19.11
2022-11-29T05:53:34.440Z,19.11
2022-11-29T05:54:34.457Z,19.02
2022-11-29T05:55:34.438Z,19.02
2022-11-29T05:56:34.432Z,19.50
2022-11-29T05:57:34.439Z,19.11
2022-11-29T05:58:34.431Z,19.11
2022-11-29T05:59:34.440Z,19.11
2022-11-29T06:00:34.430Z,19.11
2022-11-29T06:01:34.543Z,19.11
2022-11-29T06:02:34.514Z,19.11
2022-11-29T06:03:34.439Z,19.11
2022-11-29T06:04:34.428Z,19.11
2022-11-29T06:05:34.436Z,19.11
2022-11-29T06:06:34.430Z,19.11
2022-11-29T06:07:34.472Z,19.11
2022-11-29T06:08:34.428Z,19.11
2022-11-29T06:09:34.436Z,19.21
2022-11-29T06:10:34.453Z,19.02
2022-11-29T06:11:34.435Z,19.21
2022-11-29T06:12:34.426Z,19.11
2022-11-29T06:13:34.434Z,19.11
2022-11-29T06:14:34.428Z,19.11
2022-11-29T06:15:34.432Z,19.11
2022-11-29T06:16:34.549Z,19.11
2022-11-29T06:17:39.029Z,19.31
2022-11-29T06:18:34.425Z,19.11
2022-11-29T06:19:34.433Z,19.40
2022-11-29T06:20:34.424Z,19.21
2022-11-29T06:21:34.432Z,19.11
2022-11-29T06:22:34.427Z,19.11
2022-11-29T06:23:34.430Z,19.21
2022-11-29T06:24:34.429Z,19.11
2022-11-29T06:25:34.430Z,19.21
2022-11-29T06:26:34.454Z,19.21
2022-11-29T06:27:34.430Z,19.11
2022-11-29T06:28:34.421Z,19.11
2022-11-29T06:29:34.432Z,19.21
2022-11-29T06:30:34.422Z,19.11
2022-11-29T06:31:34.514Z,19.21
2022-11-29T06:32:34.420Z,19.11
2022-11-29T06:33:34.428Z,19.11
2022-11-29T06:34:34.538Z,19.50
2022-11-29T06:35:34.428Z,19.21
2022-11-29T06:36:34.421Z,19.21
2022-11-29T06:37:34.426Z,19.02
2022-11-29T06:38:34.420Z,19.11
2022-11-29T06:39:34.531Z,19.21
2022-11-29T06:40:34.420Z,19.11
2022-11-29T06:41:34.426Z,19.40
2022-11-29T06:42:34.445Z,19.21
2022-11-29T06:43:34.425Z,19.11
2022-11-29T06:44:34.503Z,19.21
2022-11-29T06:45:34.434Z,19.11
2022-11-29T06:46:34.456Z,19.11
2022-11-29T06:47:34.425Z,19.21
2022-11-29T06:48:34.416Z,19.11
2022-11-29T06:49:34.429Z,19.21
2022-11-29T06:50:34.417Z,19.21
2022-11-29T06:51:34.423Z,19.11
2022-11-29T06:52:34.415Z,19.11
2022-11-29T06:53:34.422Z,19.21
2022-11-29T06:54:34.414Z,19.21
2022-11-29T06:55:34.421Z,19.11
2022-11-29T06:56:34.414Z,19.21
2022-11-29T06:57:34.421Z,19.11
2022-11-29T06:58:36.190Z,19.21
2022-11-29T06:59:34.420Z,19.11
2022-11-29T07:00:34.491Z,19.10
2022-11-29T07:01:34.484Z,19.40
2022-11-29T07:02:34.412Z,19.11
2022-11-29T07:03:34.422Z,19.11
2022-11-29T07:04:34.411Z,19.11
2022-11-29T07:05:34.419Z,19.21
2022-11-29T07:06:34.413Z,19.21
2022-11-29T07:07:34.487Z,19.11
2022-11-29T07:08:34.410Z,19.11
2022-11-29T07:09:34.416Z,19.21
2022-11-29T07:10:34.410Z,19.21
2022-11-29T07:11:34.418Z,19.21
2022-11-29T07:12:34.418Z,19.11
2022-11-29T07:13:34.416Z,19.11
2022-11-29T07:14:34.435Z,19.20
2022-11-29T07:15:34.415Z,19.21
2022-11-29T07:16:34.512Z,19.11
2022-11-29T07:17:34.416Z,19.11
2022-11-29T07:18:34.407Z,19.21
2022-11-29T07:19:34.414Z,19.10
2022-11-29T07:20:34.407Z,19.10
2022-11-29T07:21:34.415Z,19.11
2022-11-29T07:22:34.407Z,19.01
2022-11-29T07:23:34.412Z,19.21
2022-11-29T07:24:34.405Z,19.11
2022-11-29T07:25:34.413Z,19.11
2022-11-29T07:26:34.412Z,19.21
2022-11-29T07:27:34.412Z,19.10
2022-11-29T07:28:34.406Z,19.21
2022-11-29T07:29:34.412Z,19.11
2022-11-29T07:30:34.434Z,19.11
2022-11-29T07:31:34.473Z,19.11
2022-11-29T07:32:34.406Z,19.01
2022-11-29T07:33:34.415Z,19.21
2022-11-29T07:34:34.402Z,19.10
2022-11-29T07:35:34.410Z,19.11
2022-11-29T07:36:34.403Z,19.10
2022-11-29T07:37:34.410Z,19.11
2022-11-29T07:38:34.402Z,19.20
2022-11-29T07:39:34.410Z,19.02
2022-11-29T07:40:37.529Z,19.02
2022-11-29T07:41:34.409Z,19.21
2022-11-29T07:42:34.403Z,19.11
2022-11-29T07:43:34.407Z,19.11
2022-11-29T07:44:34.398Z,19.11
2022-11-29T07:45:34.406Z,19.20
2022-11-29T07:46:34.483Z,19.02
2022-11-29T07:47:36.100Z,19.40
2022-11-29T07:48:34.398Z,19.20
2022-11-29T07:49:34.414Z,19.10
2022-11-29T07:50:34.397Z,19.11
2022-11-29T07:51:34.403Z,19.10
2022-11-29T07:52:34.396Z,19.11
2022-11-29T07:53:34.404Z,19.11
2022-11-29T07:54:34.397Z,19.11
2022-11-29T07:55:34.402Z,19.21
2022-11-29T07:56:34.395Z,19.10
2022-11-29T07:57:34.403Z,19.11
2022-11-29T07:58:34.427Z,19.11
2022-11-29T07:59:34.402Z,19.11
2022-11-29T08:00:34.478Z,19.21
2022-11-29T08:01:34.401Z,19.21
2022-11-29T08:02:34.473Z,19.21
2022-11-29T08:03:34.401Z,19.60
2022-11-29T08:04:34.394Z,19.40
2022-11-29T08:05:34.401Z,19.02
2022-11-29T08:06:34.393Z,19.11
2022-11-29T08:07:34.449Z,19.11
2022-11-29T08:08:37.779Z,19.21
2022-11-29T08:09:34.400Z,19.40
2022-11-29T08:10:34.392Z,19.11
2022-11-29T08:11:34.398Z,19.02
2022-11-29T08:12:34.391Z,20.18
2022-11-29T08:13:34.398Z,19.79
2022-11-29T08:14:34.394Z,19.31
2022-11-29T08:15:34.399Z,19.60
2022-11-29T08:16:34.437Z,18.92
2022-11-29T08:17:34.396Z,19.21
2022-11-29T08:18:34.414Z,19.11
2022-11-29T08:19:34.397Z,19.02
2022-11-29T08:20:34.389Z,18.92
2022-11-29T08:21:34.400Z,19.02
2022-11-29T08:22:34.389Z,19.02
2022-11-29T08:23:34.396Z,19.02
2022-11-29T08:24:34.388Z,19.02
2022-11-29T08:25:34.396Z,18.92
2022-11-29T08:26:34.389Z,18.82
2022-11-29T08:27:34.396Z,18.83
2022-11-29T08:28:34.402Z,18.82
2022-11-29T08:29:34.394Z,19.12
2022-11-29T08:30:34.388Z,19.02
2022-11-29T08:31:34.445Z,18.93
2022-11-29T08:32:34.389Z,18.73
2022-11-29T08:33:34.395Z,19.02
2022-11-29T08:34:34.414Z,18.93
2022-11-29T08:35:34.395Z,18.93
2022-11-29T08:36:34.389Z,18.73
2022-11-29T08:37:34.392Z,18.73
2022-11-29T08:38:34.387Z,18.93
2022-11-29T08:39:34.392Z,18.64
2022-11-29T08:40:34.386Z,18.44
2022-11-29T08:41:34.405Z,18.64
2022-11-29T08:42:34.386Z,18.64
2022-11-29T08:43:34.393Z,19.02
2022-11-29T08:44:34.385Z,19.32
2022-11-29T08:45:34.449Z,18.73
2022-11-29T08:46:34.387Z,18.93
2022-11-29T08:47:34.393Z,18.83
2022-11-29T08:48:34.387Z,18.83
2022-11-29T08:49:34.394Z,18.35
2022-11-29T08:50:34.412Z,18.54
2022-11-29T08:51:34.392Z,18.45
2022-11-29T08:52:34.387Z,18.45
2022-11-29T08:53:34.395Z,18.44
2022-11-29T08:54:34.389Z,18.35
2022-11-29T08:55:34.391Z,18.35
2022-11-29T08:57:41.721Z,18.55
2022-11-29T08:58:34.386Z,18.45
2022-11-29T08:59:34.394Z,18.55
2022-11-29T09:00:34.407Z,18.44
2022-11-29T09:01:34.510Z,18.45
2022-11-29T09:02:34.418Z,18.26
2022-11-29T09:03:34.385Z,18.45
2022-11-29T09:04:34.394Z,18.26
2022-11-29T09:05:34.387Z,18.16
2022-11-29T09:06:34.418Z,18.26
2022-11-29T09:07:34.426Z,18.45
2022-11-29T09:08:34.395Z,18.07
2022-11-29T09:09:34.387Z,18.07
2022-11-29T09:10:34.395Z,18.26
2022-11-29T09:11:34.390Z,18.16
2022-11-29T09:12:34.394Z,17.97
2022-11-29T09:13:34.389Z,18.16
2022-11-29T09:14:34.395Z,18.26
2022-11-29T09:15:34.389Z,18.07
2022-11-29T09:16:34.495Z,18.16
2022-11-29T09:17:34.389Z,18.16
2022-11-29T09:18:34.396Z,18.16
2022-11-29T09:19:34.387Z,18.07
2022-11-29T09:20:34.398Z,18.07
2022-11-29T09:21:34.396Z,18.07
2022-11-29T09:22:34.418Z,18.26
2022-11-29T09:23:34.389Z,18.65
2022-11-29T09:24:34.405Z,18.16
2022-11-29T09:25:34.389Z,18.26
2022-11-29T09:26:34.401Z,17.97
2022-11-29T09:27:34.389Z,18.07
2022-11-29T09:28:34.397Z,18.07
2022-11-29T09:29:34.390Z,19.04
2022-11-29T09:30:34.400Z,18.55
2022-11-29T09:31:34.439Z,18.16
2022-11-29T09:32:34.403Z,18.07
2022-11-29T09:33:34.392Z,18.07
2022-11-29T09:34:34.403Z,17.97
2022-11-29T09:35:34.392Z,18.17
2022-11-29T09:36:34.399Z,18.07
2022-11-29T09:37:34.392Z,17.97
2022-11-29T09:38:34.469Z,17.87
2022-11-29T09:39:34.392Z,17.68
2022-11-29T09:40:34.400Z,17.78
2022-11-29T09:41:34.394Z,17.88
2022-11-29T09:42:34.403Z,17.58
2022-11-29T09:43:34.393Z,17.68
2022-11-29T09:44:34.403Z,17.68
2022-11-29T09:45:34.438Z,17.78
2022-11-29T09:46:34.405Z,17.58
2022-11-29T09:47:34.397Z,17.78
2022-11-29T09:48:34.403Z,17.68
2022-11-29T09:49:34.396Z,17.68
2022-11-29T09:50:34.404Z,17.78
2022-11-29T09:51:34.397Z,17.97
2022-11-29T09:52:34.406Z,17.97
2022-11-29T09:53:34.397Z,17.88
2022-11-29T09:54:34.433Z,17.78
2022-11-29T09:55:34.400Z,17.78
2022-11-29T09:56:34.406Z,17.68
2022-11-29T09:57:34.401Z,17.78
2022-11-29T09:58:34.407Z,17.78
2022-11-29T09:59:34.399Z,17.78
2022-11-29T10:00:34.408Z,17.88
2022-11-29T10:01:34.457Z,17.68
2022-11-29T10:02:34.460Z,17.68
2022-11-29T10:03:34.402Z,17.58
2022-11-29T10:04:34.411Z,17.49
2022-11-29T10:05:34.401Z,17.49
2022-11-29T10:06:34.413Z,17.49
2022-11-29T10:07:34.455Z,17.58
2022-11-29T10:08:34.410Z,17.49
2022-11-29T10:09:34.459Z,17.49
2022-11-29T10:10:34.459Z,17.49
2022-11-29T10:11:34.403Z,17.49
2022-11-29T10:12:34.411Z,17.58
2022-11-29T10:13:34.415Z,17.58
2022-11-29T10:14:34.412Z,17.68
2022-11-29T10:15:34.404Z,17.49
2022-11-29T10:16:34.460Z,17.49
2022-11-29T10:17:34.409Z,17.58
2022-11-29T10:18:34.413Z,17.49
2022-11-29T10:19:34.406Z,17.58
2022-11-29T10:20:39.739Z,17.49
2022-11-29T10:21:34.411Z,17.58
2022-11-29T10:22:34.415Z,17.40
2022-11-29T10:23:34.407Z,17.68
2022-11-29T10:24:34.418Z,17.78
2022-11-29T10:25:34.408Z,17.78
2022-11-29T10:26:35.467Z,17.68
2022-11-29T10:27:34.409Z,17.78
2022-11-29T10:28:34.417Z,17.78
2022-11-29T10:29:34.411Z,17.78
2022-11-29T10:30:34.440Z,17.78
2022-11-29T10:31:34.410Z,17.88
2022-11-29T10:32:34.418Z,17.88
2022-11-29T10:33:34.415Z,17.77
2022-11-29T10:34:34.421Z,17.78
2022-11-29T10:35:34.412Z,17.88
2022-11-29T10:36:34.421Z,17.97
2022-11-29T10:37:34.412Z,17.97
2022-11-29T10:38:34.420Z,17.97
2022-11-29T10:39:34.413Z,17.97
2022-11-29T10:40:34.420Z,17.97
2022-11-29T10:41:34.413Z,17.68
2022-11-29T10:42:34.446Z,17.68
2022-11-29T10:43:34.417Z,17.68
2022-11-29T10:44:34.422Z,17.78
2022-11-29T10:45:34.418Z,17.97
2022-11-29T10:46:34.484Z,17.87
2022-11-29T10:47:34.414Z,17.87
2022-11-29T10:48:34.435Z,17.87
2022-11-29T10:49:34.416Z,17.77
2022-11-29T10:50:34.427Z,17.97
2022-11-29T10:51:34.415Z,17.68
2022-11-29T10:52:34.424Z,17.87
2022-11-29T10:53:34.416Z,17.58
2022-11-29T10:54:34.444Z,17.77
2022-11-29T10:55:34.416Z,17.77
2022-11-29T10:56:34.425Z,17.68
2022-11-29T10:57:34.419Z,17.77
2022-11-29T10:58:34.447Z,17.87
2022-11-29T10:59:34.437Z,17.97
2022-11-29T11:00:34.434Z,17.77
2022-11-29T11:01:34.467Z,17.68
2022-11-29T11:02:34.426Z,17.77
2022-11-29T11:03:34.418Z,17.68
2022-11-29T11:04:34.427Z,17.77
2022-11-29T11:05:34.460Z,17.68
2022-11-29T11:06:34.428Z,17.77
2022-11-29T11:07:34.482Z,17.68
2022-11-29T11:08:34.426Z,17.77
2022-11-29T11:09:34.463Z,17.68
2022-11-29T11:10:34.428Z,17.77
2022-11-29T11:11:34.422Z,17.87
2022-11-29T11:12:34.431Z,17.77
2022-11-29T11:13:34.424Z,17.77
2022-11-29T11:14:34.454Z,17.97
2022-11-29T11:15:34.419Z,17.76
2022-11-29T11:16:37.572Z,17.76
2022-11-29T11:17:34.421Z,17.77
2022-11-29T11:18:34.430Z,17.97
2022-11-29T11:19:34.420Z,17.87
2022-11-29T11:20:34.430Z,17.87
2022-11-29T11:21:34.423Z,18.05
2022-11-29T11:22:34.429Z,18.07
2022-11-29T11:23:38.648Z,18.94
2022-11-29T11:24:34.428Z,18.26
2022-11-29T11:25:34.421Z,18.05
2022-11-29T11:26:34.429Z,17.77
2022-11-29T11:27:34.420Z,17.77
2022-11-29T11:28:34.428Z,17.77
2022-11-29T11:29:34.423Z,17.76
2022-11-29T11:30:34.530Z,17.58
2022-11-29T11:31:34.421Z,17.97
2022-11-29T11:32:34.429Z,17.76
2022-11-29T11:33:34.421Z,17.77
2022-11-29T11:34:34.538Z,17.77
2022-11-29T11:35:34.422Z,17.58
2022-11-29T11:36:34.433Z,17.58
2022-11-29T11:37:34.423Z,17.48
2022-11-29T11:38:34.431Z,17.58
2022-11-29T11:39:34.422Z,17.48
2022-11-29T11:40:34.522Z,17.58
2022-11-29T11:41:34.425Z,17.58
2022-11-29T11:42:34.432Z,17.48
2022-11-29T11:43:34.423Z,17.38
2022-11-29T11:44:49.960Z,17.48
2022-11-29T11:45:34.423Z,17.29
2022-11-29T11:46:34.493Z,17.48
2022-11-29T11:47:34.423Z,17.48
2022-11-29T11:48:34.438Z,17.58
2022-11-29T11:49:34.424Z,17.48
2022-11-29T11:50:34.434Z,17.58
2022-11-29T11:51:34.425Z,17.48
2022-11-29T11:52:39.616Z,17.19
2022-11-29T11:53:34.425Z,17.19
2022-11-29T11:54:34.434Z,17.29
2022-11-29T11:55:34.424Z,17.48
2022-11-29T11:56:34.436Z,17.29
2022-11-29T11:57:34.429Z,17.38
2022-11-29T11:58:34.434Z,17.29
2022-11-29T11:59:34.426Z,17.29
2022-11-29T12:01:01.901Z,17.19
2022-11-29T12:01:34.429Z,17.19
2022-11-29T12:02:34.581Z,17.29
2022-11-29T12:03:34.491Z,17.19
2022-11-29T12:04:34.434Z,17.29
2022-11-29T12:05:34.427Z,17.29
2022-11-29T12:06:34.435Z,17.29
2022-11-29T12:08:06.229Z,17.19
2022-11-29T12:08:34.514Z,17.19
2022-11-29T12:09:34.430Z,17.29
2022-11-29T12:10:34.435Z,17.09
2022-11-29T12:11:34.428Z,17.09
2022-11-29T12:12:34.434Z,17.19
2022-11-29T12:13:34.428Z,17.09
2022-11-29T12:14:34.437Z,17.09
2022-11-29T12:15:34.497Z,17.09
2022-11-29T12:16:34.436Z,17.20
2022-11-29T12:17:34.433Z,17.19
2022-11-29T12:18:34.457Z,17.09
2022-11-29T12:19:34.429Z,17.19
2022-11-29T12:20:34.438Z,17.19
2022-11-29T12:21:34.434Z,17.20
2022-11-29T12:22:34.437Z,17.20
2022-11-29T12:23:34.430Z,17.19
2022-11-29T12:24:34.437Z,17.10
2022-11-29T12:25:34.448Z,17.09
2022-11-29T12:26:56.547Z,17.09
2022-11-29T12:27:34.431Z,16.91
2022-11-29T12:28:34.439Z,16.99
2022-11-29T12:29:34.434Z,16.81
2022-11-29T12:30:34.444Z,16.61
2022-11-29T12:31:34.549Z,16.71
2022-11-29T12:32:34.442Z,16.81
2022-11-29T12:33:34.434Z,16.71
2022-11-29T12:34:34.468Z,16.71
2022-11-29T12:35:34.435Z,16.91
2022-11-29T12:36:34.442Z,16.81
2022-11-29T12:37:34.434Z,16.81
2022-11-29T12:38:34.447Z,16.91
2022-11-29T12:39:34.445Z,16.81
2022-11-29T12:40:34.445Z,16.81
2022-11-29T12:41:34.436Z,16.91
2022-11-29T12:42:34.444Z,16.91
2022-11-29T12:43:34.437Z,16.91
2022-11-29T12:44:34.453Z,16.91
2022-11-29T12:45:34.439Z,16.81
2022-11-29T12:46:34.560Z,16.81
2022-11-29T12:47:36.171Z,16.52
2022-11-29T12:48:34.448Z,16.52
2022-11-29T12:49:34.445Z,16.52
2022-11-29T12:50:34.475Z,16.42
2022-11-29T12:51:34.439Z,16.52
2022-11-29T12:52:34.452Z,16.61
2022-11-29T12:53:34.440Z,16.52